Accueil
METAR-TAF:

METAR-TAF

Aéroports :

Pointe-à-Pitre, Guadeloupe

Aéroport Guadeloupe - Pôle Caraïbes

latitude: 16-16N, longitude: 061-31W, altitude: 11 m

Observation

Le bulletin a été fait il y a 29 minutes, à 22:30 UTC
Vent 3 kt de est/sud-est
Température 26°C
Humidité 70%
Pression 1012 hPa
Visibilité 10 km ou plus
Quelques nuages à une hauteur de 3300 ft

METAR: TFFR 202230Z AUTO 11003KT 9999 FEW033 26/20 Q1012 NOSIG

Heure: 18:59 (22:59 UTC)

Prévision

Le bulletin a été fait il y a 5 heures et 59 minutes, à 17:00 UTC
Prévision valable du 20 à 18 UTC au 21 à 18 UTC
Vent 10 kt de est/sud-est
Visibilité 10 km ou plus
pas de nuages en-dessous de 1500 mètres et pas de cumulonimbus.
Evoluant progressivement
du 20 à 21 UTC au 20 à 24 UTC
Vent 3 kt de direction variable
Evoluant progressivement
du 21 à 10 UTC au 21 à 13 UTC
Vent 10 kt de est

TAF: TFFR 201700Z 2018/2118 12010KT CAVOK BECMG 2021/2024 VRB03KT BECMG 2110/2113 09010KT

Observations et prévisions météorologiques de plus de 4000 aéroports (messages METAR et TAF).

Les stations disponibles sont représentées par des disques jaunes et rouges sur la carte.

Passer la souris dessus pour voir le nom de la station.

Cliquer dessus pour voir les observations et prévisions météorologiques.

Pour changer de carte: cliquez sur les boutons verts avec une croix noire pour zoomer, sur le bouton vert avec un tiret pour effectuer un zoom arrière, ou sur les flèches vertes pour les cartes adjacentes.


METAR-TAF: